createdAt,value
2018-12-06T00:00:55.701Z,955.65
2018-12-06T00:01:55.680Z,955.63
2018-12-06T00:02:55.663Z,955.68
2018-12-06T00:03:55.645Z,955.68
2018-12-06T00:04:55.630Z,955.63
2018-12-06T00:05:55.611Z,955.6
2018-12-06T00:06:55.593Z,955.63
2018-12-06T00:07:55.576Z,955.6
2018-12-06T00:08:55.558Z,955.68
2018-12-06T00:09:55.541Z,955.61
2018-12-06T00:10:55.523Z,955.64
2018-12-06T00:11:55.506Z,955.63
2018-12-06T00:12:55.490Z,955.68
2018-12-06T00:13:55.473Z,955.61
2018-12-06T00:14:55.455Z,955.57
2018-12-06T00:15:55.437Z,955.65
2018-12-06T00:16:55.419Z,955.57
2018-12-06T00:17:55.401Z,955.57
2018-12-06T00:18:55.384Z,955.57
2018-12-06T00:19:55.367Z,955.64
2018-12-06T00:20:55.350Z,955.62
2018-12-06T00:21:55.333Z,955.61
2018-12-06T00:22:55.316Z,955.7
2018-12-06T00:23:55.297Z,955.56
2018-12-06T00:24:55.279Z,955.68
2018-12-06T00:25:55.263Z,955.64
2018-12-06T00:26:55.246Z,955.53
2018-12-06T00:27:55.230Z,955.64
2018-12-06T00:28:55.210Z,955.6
2018-12-06T00:29:55.193Z,955.66
2018-12-06T00:30:55.181Z,955.66
2018-12-06T00:31:55.160Z,955.66
2018-12-06T00:32:55.142Z,955.68
2018-12-06T00:33:55.125Z,955.69
2018-12-06T00:34:55.107Z,955.58
2018-12-06T00:35:55.090Z,955.62
2018-12-06T00:36:55.071Z,955.63
2018-12-06T00:37:55.055Z,955.68
2018-12-06T00:38:55.038Z,955.73
2018-12-06T00:39:55.020Z,955.79
2018-12-06T00:40:55.006Z,955.75
2018-12-06T00:41:54.986Z,955.75
2018-12-06T00:42:54.967Z,955.86
2018-12-06T00:43:54.950Z,955.87
2018-12-06T00:44:54.936Z,955.99
2018-12-06T00:45:54.917Z,955.98
2018-12-06T00:46:54.897Z,956
2018-12-06T00:47:54.881Z,956.09
2018-12-06T00:48:54.863Z,956.1
2018-12-06T00:49:54.846Z,956.15
2018-12-06T00:50:54.828Z,956.12
2018-12-06T00:51:54.811Z,956.11
2018-12-06T00:52:54.793Z,956.13
2018-12-06T00:53:54.779Z,956.21
2018-12-06T00:54:54.758Z,956.2
2018-12-06T00:55:54.742Z,956.22
2018-12-06T00:56:54.724Z,956.21
2018-12-06T00:57:54.706Z,956.16
2018-12-06T00:58:54.689Z,956.15
2018-12-06T00:59:54.671Z,956.08
2018-12-06T01:00:54.654Z,956.08
2018-12-06T01:01:54.637Z,956.08
2018-12-06T01:02:54.619Z,956.08
2018-12-06T01:03:54.605Z,956.04
2018-12-06T01:04:54.583Z,955.97
2018-12-06T01:05:54.566Z,956
2018-12-06T01:06:54.549Z,956.03
2018-12-06T01:07:54.531Z,955.92
2018-12-06T01:08:54.516Z,955.95
2018-12-06T01:09:54.499Z,955.93
2018-12-06T01:10:54.484Z,955.88
2018-12-06T01:11:54.461Z,955.83
2018-12-06T01:12:54.444Z,955.86
2018-12-06T01:13:54.425Z,955.78
2018-12-06T01:14:54.415Z,955.71
2018-12-06T01:15:54.390Z,955.65
2018-12-06T01:16:54.623Z,955.64
2018-12-06T01:17:54.356Z,955.63
2018-12-06T01:18:54.338Z,955.56
2018-12-06T01:19:54.320Z,955.7
2018-12-06T01:20:54.302Z,955.72
2018-12-06T01:21:54.285Z,955.88
2018-12-06T01:22:54.268Z,955.86
2018-12-06T01:23:54.250Z,955.95
2018-12-06T01:24:54.232Z,955.85
2018-12-06T01:25:54.215Z,955.88
2018-12-06T01:26:54.198Z,955.9
2018-12-06T01:27:54.178Z,955.94
2018-12-06T01:28:54.162Z,955.87
2018-12-06T01:29:54.144Z,955.88
2018-12-06T01:30:54.125Z,955.87
2018-12-06T01:31:54.109Z,955.87
2018-12-06T01:32:54.091Z,955.8
2018-12-06T01:33:54.074Z,955.74
2018-12-06T01:34:54.055Z,955.81
2018-12-06T01:35:54.037Z,955.68
2018-12-06T01:36:54.020Z,955.61
2018-12-06T01:37:54.002Z,955.52
2018-12-06T01:38:53.985Z,955.59
2018-12-06T01:39:53.966Z,955.44
2018-12-06T01:40:53.950Z,955.46
2018-12-06T01:41:53.931Z,955.45
2018-12-06T01:42:53.915Z,955.38
2018-12-06T01:43:53.896Z,955.36
2018-12-06T01:44:53.879Z,955.3
2018-12-06T01:45:53.861Z,955.29
2018-12-06T01:46:53.843Z,955.31
2018-12-06T01:47:53.825Z,955.3
2018-12-06T01:48:53.807Z,955.27
2018-12-06T01:49:53.790Z,955.3
2018-12-06T01:50:53.772Z,955.24
2018-12-06T01:51:53.755Z,955.27
2018-12-06T01:52:53.736Z,955.28
2018-12-06T01:53:53.721Z,955.31
2018-12-06T01:54:53.702Z,955.33
2018-12-06T01:55:53.683Z,955.37
2018-12-06T01:56:53.665Z,955.31
2018-12-06T01:57:53.648Z,955.32
2018-12-06T01:58:53.630Z,955.3
2018-12-06T01:59:53.611Z,955.38
2018-12-06T02:00:53.597Z,955.39
2018-12-06T02:01:53.577Z,955.32
2018-12-06T02:02:53.559Z,955.4
2018-12-06T02:03:53.543Z,955.28
2018-12-06T02:04:53.523Z,955.33
2018-12-06T02:05:53.506Z,955.29
2018-12-06T02:06:53.490Z,955.3
2018-12-06T02:07:53.471Z,955.3
2018-12-06T02:08:53.454Z,955.28
2018-12-06T02:09:53.436Z,955.3
2018-12-06T02:10:53.419Z,955.38
2018-12-06T02:11:53.400Z,955.23
2018-12-06T02:12:53.383Z,955.26
2018-12-06T02:13:53.365Z,955.17
2018-12-06T02:14:53.347Z,955.14
2018-12-06T02:15:53.331Z,955.07
2018-12-06T02:16:53.312Z,955.04
2018-12-06T02:17:53.293Z,955.04
2018-12-06T02:18:53.277Z,954.97
2018-12-06T02:19:53.261Z,954.96
2018-12-06T02:20:53.242Z,954.96
2018-12-06T02:21:53.223Z,954.98
2018-12-06T02:22:53.206Z,954.97
2018-12-06T02:23:53.188Z,954.92
2018-12-06T02:24:53.171Z,954.95
2018-12-06T02:25:53.154Z,954.97
2018-12-06T02:26:53.135Z,954.94
2018-12-06T02:27:53.119Z,954.95
2018-12-06T02:28:53.099Z,955.03
2018-12-06T02:29:53.084Z,955.06
2018-12-06T02:30:53.078Z,954.97
2018-12-06T02:31:53.051Z,955.04
2018-12-06T02:32:53.032Z,954.98
2018-12-06T02:33:53.019Z,954.87
2018-12-06T02:34:52.997Z,954.95
2018-12-06T02:35:52.977Z,955.02
2018-12-06T02:36:52.959Z,954.94
2018-12-06T02:37:52.945Z,954.96
2018-12-06T02:38:52.925Z,954.96
2018-12-06T02:39:52.905Z,954.95
2018-12-06T02:40:52.889Z,954.96
2018-12-06T02:41:52.872Z,954.95
2018-12-06T02:42:52.854Z,954.92
2018-12-06T02:43:52.835Z,954.78
2018-12-06T02:44:52.819Z,954.85
2018-12-06T02:45:52.803Z,954.86
2018-12-06T02:46:52.803Z,954.66
2018-12-06T02:47:52.764Z,954.74
2018-12-06T02:48:52.747Z,954.68
2018-12-06T02:49:52.731Z,954.69
2018-12-06T02:50:52.713Z,954.67
2018-12-06T02:51:52.694Z,954.65
2018-12-06T02:52:52.677Z,954.64
2018-12-06T02:53:52.660Z,954.65
2018-12-06T02:54:52.641Z,954.62
2018-12-06T02:55:52.625Z,954.66
2018-12-06T02:56:52.607Z,954.67
2018-12-06T02:57:52.589Z,954.65
2018-12-06T02:58:52.618Z,954.55
2018-12-06T02:59:52.556Z,954.63
2018-12-06T03:00:52.536Z,954.54
2018-12-06T03:01:52.519Z,954.53
2018-12-06T03:02:52.651Z,954.52
2018-12-06T03:03:52.484Z,954.55
2018-12-06T03:04:52.466Z,954.69
2018-12-06T03:05:52.448Z,954.52
2018-12-06T03:06:52.430Z,954.52
2018-12-06T03:07:52.413Z,954.7
2018-12-06T03:08:52.403Z,954.57
2018-12-06T03:09:52.378Z,954.51
2018-12-06T03:10:52.364Z,954.51
2018-12-06T03:11:52.343Z,954.45
2018-12-06T03:12:52.325Z,954.38
2018-12-06T03:13:52.307Z,954.29
2018-12-06T03:14:52.296Z,954.42
2018-12-06T03:15:52.273Z,954.29
2018-12-06T03:16:52.255Z,954.29
2018-12-06T03:17:52.238Z,954.3
2018-12-06T03:18:52.224Z,954.24
2018-12-06T03:19:52.205Z,954.14
2018-12-06T03:20:52.185Z,954.09
2018-12-06T03:21:52.168Z,954.08
2018-12-06T03:22:52.300Z,954.15
2018-12-06T03:23:52.136Z,954.08
2018-12-06T03:24:52.113Z,954.07
2018-12-06T03:25:52.096Z,954
2018-12-06T03:26:52.080Z,954.14
2018-12-06T03:27:52.062Z,953.95
2018-12-06T03:28:52.044Z,953.93
2018-12-06T03:29:52.026Z,953.94
2018-12-06T03:30:52.012Z,953.98
2018-12-06T03:31:52.001Z,953.89
2018-12-06T03:32:51.977Z,953.93
2018-12-06T03:33:51.973Z,953.97
2018-12-06T03:34:51.939Z,953.91
2018-12-06T03:35:51.922Z,953.9
2018-12-06T03:36:51.904Z,953.96
2018-12-06T03:37:51.887Z,953.88
2018-12-06T03:38:51.869Z,953.86
2018-12-06T03:39:51.852Z,953.87
2018-12-06T03:40:51.835Z,953.9
2018-12-06T03:41:51.817Z,953.85
2018-12-06T03:42:51.800Z,953.88
2018-12-06T03:43:51.784Z,953.74
2018-12-06T03:44:51.766Z,953.85
2018-12-06T03:45:51.748Z,953.93
2018-12-06T03:46:51.731Z,953.89
2018-12-06T03:47:51.717Z,953.88
2018-12-06T03:48:51.696Z,953.92
2018-12-06T03:49:51.678Z,953.89
2018-12-06T03:50:51.662Z,953.89
2018-12-06T03:51:51.644Z,953.87
2018-12-06T03:52:51.626Z,953.81
2018-12-06T03:53:51.608Z,953.85
2018-12-06T03:54:51.592Z,953.8
2018-12-06T03:55:51.574Z,953.83
2018-12-06T03:56:51.557Z,953.83
2018-12-06T03:57:51.540Z,953.79
2018-12-06T03:58:51.523Z,953.71
2018-12-06T03:59:51.506Z,953.83
2018-12-06T04:00:51.487Z,953.82
2018-12-06T04:01:51.472Z,953.85
2018-12-06T04:02:51.543Z,953.79
2018-12-06T04:03:51.434Z,953.82
2018-12-06T04:04:51.418Z,953.81
2018-12-06T04:05:51.402Z,953.69
2018-12-06T04:06:51.385Z,953.72
2018-12-06T04:07:51.366Z,953.79
2018-12-06T04:08:51.348Z,953.73
2018-12-06T04:09:51.333Z,953.68
2018-12-06T04:10:51.314Z,953.78
2018-12-06T04:11:51.296Z,953.83
2018-12-06T04:12:51.279Z,953.79
2018-12-06T04:13:51.305Z,953.75
2018-12-06T04:14:51.244Z,953.83
2018-12-06T04:15:51.234Z,953.82
2018-12-06T04:16:51.211Z,953.75
2018-12-06T04:17:51.193Z,953.76
2018-12-06T04:18:51.175Z,953.7
2018-12-06T04:19:51.158Z,953.86
2018-12-06T04:20:51.140Z,953.75
2018-12-06T04:21:51.123Z,953.77
2018-12-06T04:22:51.106Z,953.8
2018-12-06T04:23:51.088Z,953.81
2018-12-06T04:24:51.072Z,953.81
2018-12-06T04:25:51.053Z,953.78
2018-12-06T04:26:51.036Z,953.76
2018-12-06T04:27:51.019Z,953.73
2018-12-06T04:28:51.151Z,953.74
2018-12-06T04:29:50.985Z,953.74
2018-12-06T04:30:50.967Z,953.73
2018-12-06T04:31:50.949Z,953.7
2018-12-06T04:32:50.934Z,953.68
2018-12-06T04:33:50.913Z,953.71
2018-12-06T04:34:50.897Z,953.68
2018-12-06T04:35:50.880Z,953.75
2018-12-06T04:36:50.862Z,953.77
2018-12-06T04:37:50.845Z,953.86
2018-12-06T04:38:50.830Z,953.84
2018-12-06T04:39:50.813Z,953.75
2018-12-06T04:40:50.792Z,953.73
2018-12-06T04:41:50.780Z,953.71
2018-12-06T04:42:50.761Z,953.62
2018-12-06T04:43:50.747Z,953.61
2018-12-06T04:44:50.724Z,953.67
2018-12-06T04:45:50.708Z,953.68
2018-12-06T04:46:50.688Z,953.64
2018-12-06T04:47:50.674Z,953.56
2018-12-06T04:48:50.653Z,953.6
2018-12-06T04:49:50.636Z,953.58
2018-12-06T04:50:50.621Z,953.55
2018-12-06T04:51:50.602Z,953.56
2018-12-06T04:52:50.584Z,953.49
2018-12-06T04:53:50.567Z,953.51
2018-12-06T04:54:50.556Z,953.46
2018-12-06T04:55:50.532Z,953.43
2018-12-06T04:56:50.516Z,953.51
2018-12-06T04:57:50.498Z,953.62
2018-12-06T04:58:50.481Z,953.53
2018-12-06T04:59:50.463Z,953.55
2018-12-06T05:00:50.452Z,953.46
2018-12-06T05:01:50.429Z,953.62
2018-12-06T05:02:50.411Z,953.56
2018-12-06T05:03:50.394Z,953.56
2018-12-06T05:04:50.378Z,953.46
2018-12-06T05:05:50.359Z,953.53
2018-12-06T05:06:50.342Z,953.51
2018-12-06T05:07:50.324Z,953.56
2018-12-06T05:08:50.306Z,953.59
2018-12-06T05:09:50.289Z,953.65
2018-12-06T05:10:50.273Z,953.57
2018-12-06T05:11:50.255Z,953.61
2018-12-06T05:12:50.238Z,953.63
2018-12-06T05:13:50.220Z,953.46
2018-12-06T05:14:50.204Z,953.52
2018-12-06T05:15:50.185Z,953.46
2018-12-06T05:16:50.168Z,953.44
2018-12-06T05:17:50.152Z,953.46
2018-12-06T05:18:50.208Z,953.48
2018-12-06T05:19:50.117Z,953.45
2018-12-06T05:20:50.099Z,953.49
2018-12-06T05:21:50.083Z,953.42
2018-12-06T05:22:50.066Z,953.46
2018-12-06T05:23:50.048Z,953.38
2018-12-06T05:24:50.033Z,953.48
2018-12-06T05:25:50.014Z,953.48
2018-12-06T05:26:49.996Z,953.51
2018-12-06T05:27:49.978Z,953.46
2018-12-06T05:28:49.961Z,953.36
2018-12-06T05:29:49.945Z,953.48
2018-12-06T05:30:49.927Z,953.45
2018-12-06T05:31:49.910Z,953.38
2018-12-06T05:32:49.892Z,953.33
2018-12-06T05:33:49.875Z,953.31
2018-12-06T05:34:49.861Z,953.34
2018-12-06T05:35:49.840Z,953.26
2018-12-06T05:36:49.823Z,953.22
2018-12-06T05:37:49.806Z,953.29
2018-12-06T05:38:49.792Z,953.21
2018-12-06T05:39:49.770Z,953.15
2018-12-06T05:40:49.754Z,953.19
2018-12-06T05:41:49.737Z,953.14
2018-12-06T05:42:49.723Z,953.28
2018-12-06T05:43:49.702Z,953.2
2018-12-06T05:44:49.985Z,953.23
2018-12-06T05:45:49.667Z,953.26
2018-12-06T05:46:49.648Z,953.29
2018-12-06T05:47:49.632Z,953.27
2018-12-06T05:48:49.615Z,953.26
2018-12-06T05:49:49.599Z,953.43
2018-12-06T05:50:49.581Z,953.47
2018-12-06T05:51:49.562Z,953.49
2018-12-06T05:52:49.546Z,953.51
2018-12-06T05:53:49.528Z,953.51
2018-12-06T05:54:49.510Z,953.53
2018-12-06T05:55:49.493Z,953.33
2018-12-06T05:56:49.476Z,953.5
2018-12-06T05:57:49.458Z,953.46
2018-12-06T05:58:49.441Z,953.5
2018-12-06T05:59:49.424Z,953.61
2018-12-06T06:00:49.405Z,953.59
2018-12-06T06:01:49.393Z,953.55
2018-12-06T06:02:49.371Z,953.55
2018-12-06T06:03:49.354Z,953.62
2018-12-06T06:04:49.336Z,953.58
2018-12-06T06:05:49.320Z,953.67
2018-12-06T06:06:49.303Z,953.74
2018-12-06T06:07:49.285Z,953.83
2018-12-06T06:08:49.266Z,953.76
2018-12-06T06:09:49.249Z,953.8
2018-12-06T06:10:49.232Z,953.87
2018-12-06T06:11:49.216Z,953.8
2018-12-06T06:12:49.197Z,953.85
2018-12-06T06:13:49.181Z,953.84
2018-12-06T06:14:49.163Z,953.9
2018-12-06T06:15:49.144Z,953.94
2018-12-06T06:16:49.128Z,953.98
2018-12-06T06:17:49.111Z,953.94
2018-12-06T06:18:49.093Z,954.02
2018-12-06T06:19:49.075Z,953.99
2018-12-06T06:20:49.058Z,953.98
2018-12-06T06:21:49.041Z,954.1
2018-12-06T06:22:49.023Z,954.03
2018-12-06T06:23:49.007Z,954.1
2018-12-06T06:24:48.990Z,954.32
2018-12-06T06:25:48.971Z,954.29
2018-12-06T06:26:48.954Z,954.31
2018-12-06T06:27:48.937Z,954.42
2018-12-06T06:28:48.919Z,954.47
2018-12-06T06:29:48.902Z,954.46
2018-12-06T06:30:48.884Z,954.52
2018-12-06T06:31:48.867Z,954.61
2018-12-06T06:32:48.851Z,954.58
2018-12-06T06:33:48.832Z,954.58
2018-12-06T06:34:48.815Z,954.67
2018-12-06T06:35:48.798Z,954.68
2018-12-06T06:36:48.783Z,954.58
2018-12-06T06:37:48.764Z,954.6
2018-12-06T06:38:48.745Z,954.69
2018-12-06T06:39:48.729Z,954.72
2018-12-06T06:40:48.711Z,954.68
2018-12-06T06:41:48.746Z,954.77
2018-12-06T06:42:48.679Z,954.7
2018-12-06T06:43:48.661Z,954.78
2018-12-06T06:44:48.643Z,954.76
2018-12-06T06:45:48.624Z,954.85
2018-12-06T06:46:48.607Z,954.82
2018-12-06T06:47:48.594Z,954.92
2018-12-06T06:48:48.589Z,954.91
2018-12-06T06:49:48.561Z,954.88
2018-12-06T06:50:48.540Z,954.9
2018-12-06T06:51:48.522Z,954.93
2018-12-06T06:52:48.510Z,954.93
2018-12-06T06:53:48.488Z,954.97
2018-12-06T06:54:48.471Z,954.98
2018-12-06T06:55:48.453Z,955.05
2018-12-06T06:56:48.436Z,955
2018-12-06T06:57:48.419Z,954.89
2018-12-06T06:58:48.405Z,954.84
2018-12-06T06:59:48.386Z,954.89
2018-12-06T07:00:48.369Z,954.84
2018-12-06T07:01:48.351Z,954.91
2018-12-06T07:02:48.334Z,954.89
2018-12-06T07:03:48.316Z,954.89
2018-12-06T07:04:48.300Z,954.93
2018-12-06T07:05:48.284Z,954.86
2018-12-06T07:06:48.264Z,954.9
2018-12-06T07:07:48.249Z,954.88
2018-12-06T07:08:48.232Z,954.98
2018-12-06T07:09:48.215Z,954.9
2018-12-06T07:10:48.197Z,954.87
2018-12-06T07:11:48.179Z,954.79
2018-12-06T07:12:48.165Z,954.92
2018-12-06T07:13:48.146Z,954.84
2018-12-06T07:14:48.128Z,954.76
2018-12-06T07:15:48.112Z,954.82
2018-12-06T07:16:48.095Z,954.78
2018-12-06T07:17:48.077Z,954.78
2018-12-06T07:18:48.061Z,954.73
2018-12-06T07:19:48.043Z,954.8
2018-12-06T07:20:48.027Z,954.82
2018-12-06T07:21:48.009Z,954.86
2018-12-06T07:22:47.994Z,954.91
2018-12-06T07:23:47.976Z,954.83
2018-12-06T07:24:47.958Z,954.93
2018-12-06T07:25:47.942Z,954.9
2018-12-06T07:26:47.977Z,954.85
2018-12-06T07:27:47.918Z,954.88
2018-12-06T07:28:47.892Z,954.93
2018-12-06T07:29:48.591Z,954.85
2018-12-06T07:30:47.858Z,954.8
2018-12-06T07:31:47.841Z,954.82
2018-12-06T07:32:47.824Z,954.86
2018-12-06T07:33:47.807Z,954.86
2018-12-06T07:34:47.791Z,954.9
2018-12-06T07:35:47.773Z,954.82
2018-12-06T07:36:47.757Z,955.02
2018-12-06T07:37:47.741Z,954.99
2018-12-06T07:38:47.729Z,954.96
2018-12-06T07:39:47.707Z,954.96
2018-12-06T07:40:47.691Z,954.94
2018-12-06T07:41:47.675Z,954.97
2018-12-06T07:42:47.661Z,954.92
2018-12-06T07:43:47.641Z,954.89
2018-12-06T07:44:47.625Z,954.88
2018-12-06T07:45:47.609Z,954.81
2018-12-06T07:46:47.591Z,954.79
2018-12-06T07:47:47.575Z,954.94
2018-12-06T07:48:47.560Z,954.88
2018-12-06T07:49:47.542Z,954.86
2018-12-06T07:50:47.526Z,954.79
2018-12-06T07:51:47.509Z,954.82
2018-12-06T07:52:47.492Z,954.84
2018-12-06T07:53:47.477Z,954.85
2018-12-06T07:54:47.463Z,954.72
2018-12-06T07:55:47.445Z,954.77
2018-12-06T07:56:47.427Z,954.79
2018-12-06T07:57:47.410Z,954.8
2018-12-06T07:58:47.401Z,954.85
2018-12-06T07:59:47.380Z,954.76
2018-12-06T08:00:47.362Z,954.79
2018-12-06T08:01:47.345Z,954.78
2018-12-06T08:02:47.328Z,954.66
2018-12-06T08:03:47.312Z,954.71
2018-12-06T08:04:47.384Z,954.8
2018-12-06T08:05:47.279Z,954.71
2018-12-06T08:06:47.263Z,954.61
2018-12-06T08:07:47.247Z,954.7
2018-12-06T08:08:47.233Z,954.68
2018-12-06T08:09:47.214Z,954.69
2018-12-06T08:10:47.198Z,954.76
2018-12-06T08:11:47.183Z,954.71
2018-12-06T08:12:47.164Z,954.83
2018-12-06T08:13:47.147Z,954.83
2018-12-06T08:14:47.131Z,954.81
2018-12-06T08:15:47.115Z,954.79
2018-12-06T08:16:47.097Z,954.84
2018-12-06T08:17:47.081Z,954.8
2018-12-06T08:18:47.066Z,954.8
2018-12-06T08:19:47.103Z,954.84
2018-12-06T08:20:47.033Z,954.85
2018-12-06T08:21:47.017Z,954.87
2018-12-06T08:22:47.001Z,954.83
2018-12-06T08:23:46.984Z,954.91
2018-12-06T08:24:46.966Z,954.84
2018-12-06T08:25:46.951Z,954.87
2018-12-06T08:26:46.934Z,954.84
2018-12-06T08:27:46.918Z,954.88
2018-12-06T08:28:46.902Z,954.83
2018-12-06T08:29:46.886Z,954.82
2018-12-06T08:30:46.870Z,954.89
2018-12-06T08:31:46.854Z,954.88
2018-12-06T08:32:46.837Z,954.86
2018-12-06T08:33:46.821Z,954.91
2018-12-06T08:34:46.803Z,954.84
2018-12-06T08:35:46.787Z,954.83
2018-12-06T08:36:46.771Z,954.82
2018-12-06T08:37:46.755Z,954.79
2018-12-06T08:38:46.739Z,954.77
2018-12-06T08:39:46.721Z,954.87
2018-12-06T08:40:46.707Z,954.78
2018-12-06T08:41:46.688Z,954.68
2018-12-06T08:42:46.672Z,954.77
2018-12-06T08:43:46.659Z,954.7
2018-12-06T08:44:46.641Z,954.72
2018-12-06T08:45:46.624Z,954.73
2018-12-06T08:46:46.607Z,954.69
2018-12-06T08:47:46.592Z,954.68
2018-12-06T08:48:46.576Z,954.57
2018-12-06T08:49:46.648Z,954.57
2018-12-06T08:50:46.543Z,954.61
2018-12-06T08:51:46.527Z,954.62
2018-12-06T08:52:46.510Z,954.63
2018-12-06T08:53:46.494Z,954.73
2018-12-06T08:54:46.483Z,954.71
2018-12-06T08:55:46.462Z,954.77
2018-12-06T08:56:46.448Z,954.86
2018-12-06T08:57:46.429Z,954.85
2018-12-06T08:58:46.413Z,954.96
2018-12-06T08:59:46.397Z,954.9
2018-12-06T09:00:46.380Z,954.98
2018-12-06T09:01:46.366Z,954.98
2018-12-06T09:02:46.354Z,955.03
2018-12-06T09:03:46.332Z,955
2018-12-06T09:04:46.317Z,955.06
2018-12-06T09:05:46.302Z,955.12
2018-12-06T09:06:46.286Z,955.04
2018-12-06T09:07:46.268Z,955.03
2018-12-06T09:08:46.253Z,954.99
2018-12-06T09:09:46.237Z,954.99
2018-12-06T09:10:51.435Z,954.9
2018-12-06T09:11:46.207Z,954.93
2018-12-06T09:12:46.190Z,954.87
2018-12-06T09:13:46.174Z,954.87
2018-12-06T09:14:46.157Z,954.97
2018-12-06T09:15:46.143Z,955.02
2018-12-06T09:16:46.125Z,955
2018-12-06T09:17:46.110Z,955.09
2018-12-06T09:18:46.094Z,955.08
2018-12-06T09:19:46.078Z,955.15
2018-12-06T09:20:46.063Z,955.11
2018-12-06T09:21:46.046Z,955.13
2018-12-06T09:22:46.033Z,955.06
2018-12-06T09:23:46.016Z,955.01
2018-12-06T09:24:46.000Z,955
2018-12-06T09:25:46.378Z,955.04
2018-12-06T09:26:45.969Z,955.03
2018-12-06T09:27:45.954Z,954.99
2018-12-06T09:28:45.938Z,955.04
2018-12-06T09:29:45.923Z,955.07
2018-12-06T09:30:45.907Z,955.02
2018-12-06T09:31:45.893Z,955.03
2018-12-06T09:32:45.875Z,954.98
2018-12-06T09:33:45.860Z,954.97
2018-12-06T09:34:45.846Z,954.94
2018-12-06T09:35:45.829Z,954.91
2018-12-06T09:36:45.813Z,954.88
2018-12-06T09:37:45.811Z,954.83
2018-12-06T09:38:45.784Z,954.85
2018-12-06T09:39:45.769Z,954.89
2018-12-06T09:40:45.753Z,954.99
2018-12-06T09:41:45.739Z,955.07
2018-12-06T09:42:45.726Z,955.05
2018-12-06T09:43:45.711Z,955.1
2018-12-06T09:44:45.693Z,955.06
2018-12-06T09:45:45.679Z,955.04
2018-12-06T09:46:45.664Z,955.1
2018-12-06T09:47:45.648Z,955.1
2018-12-06T09:48:45.634Z,955.06
2018-12-06T09:49:45.619Z,955.08
2018-12-06T09:50:45.604Z,955.18
2018-12-06T09:51:45.590Z,955.13
2018-12-06T09:52:45.576Z,955.13
2018-12-06T09:53:45.560Z,955.13
2018-12-06T09:54:45.544Z,955.05
2018-12-06T09:55:45.530Z,955.1
2018-12-06T09:56:45.516Z,955.12
2018-12-06T09:57:45.502Z,955.11
2018-12-06T09:58:45.486Z,955.07
2018-12-06T09:59:46.901Z,955.11
2018-12-06T10:00:45.457Z,955.13
2018-12-06T10:01:45.443Z,955.19
2018-12-06T10:02:45.428Z,955.21
2018-12-06T10:03:45.414Z,955.23
2018-12-06T10:04:45.400Z,955.2
2018-12-06T10:05:45.385Z,955.17
2018-12-06T10:06:45.371Z,955.1
2018-12-06T10:07:45.357Z,955.1
2018-12-06T10:08:45.343Z,955.07
2018-12-06T10:09:45.327Z,955.04
2018-12-06T10:10:45.315Z,955.05
2018-12-06T10:11:45.301Z,955.05
2018-12-06T10:12:45.284Z,955.06
2018-12-06T10:13:45.269Z,955.01
2018-12-06T10:14:45.256Z,955.02
2018-12-06T10:15:45.241Z,955.02
2018-12-06T10:16:45.231Z,954.99
2018-12-06T10:17:45.217Z,954.98
2018-12-06T10:18:45.201Z,954.95
2018-12-06T10:19:45.185Z,954.88
2018-12-06T10:20:45.171Z,954.82
2018-12-06T10:21:45.157Z,954.87
2018-12-06T10:22:45.150Z,954.89
2018-12-06T10:23:45.130Z,954.9
2018-12-06T10:24:45.114Z,954.87
2018-12-06T10:25:45.102Z,954.93
2018-12-06T10:26:45.089Z,954.95
2018-12-06T10:27:45.072Z,954.93
2018-12-06T10:28:45.060Z,954.86
2018-12-06T10:29:45.044Z,954.83
2018-12-06T10:30:45.030Z,954.83
2018-12-06T10:31:45.016Z,954.84
2018-12-06T10:32:45.003Z,954.91
2018-12-06T10:33:44.988Z,955
2018-12-06T10:34:45.460Z,954.94
2018-12-06T10:35:44.961Z,954.93
2018-12-06T10:36:44.947Z,954.92
2018-12-06T10:37:44.936Z,954.94
2018-12-06T10:38:44.921Z,954.89
2018-12-06T10:39:44.907Z,954.93
2018-12-06T10:40:44.894Z,954.99
2018-12-06T10:41:44.880Z,955.03
2018-12-06T10:42:44.866Z,955.05
2018-12-06T10:43:44.853Z,954.96
2018-12-06T10:44:44.839Z,955.03
2018-12-06T10:45:44.826Z,954.98
2018-12-06T10:46:44.812Z,954.99
2018-12-06T10:47:44.802Z,955.04
2018-12-06T10:48:44.786Z,955.09
2018-12-06T10:49:44.773Z,955.14
2018-12-06T10:50:44.759Z,955.02
2018-12-06T10:51:44.746Z,955.02
2018-12-06T10:52:44.733Z,955.05
2018-12-06T10:53:44.719Z,955.05
2018-12-06T10:54:44.706Z,955.04
2018-12-06T10:55:44.692Z,955.05
2018-12-06T10:56:44.678Z,955.15
2018-12-06T10:57:44.666Z,955.1
2018-12-06T10:58:44.655Z,955.09
2018-12-06T10:59:44.640Z,955.09
2018-12-06T11:00:44.625Z,955.13
2018-12-06T11:01:44.613Z,955.12
2018-12-06T11:02:44.600Z,955.14
2018-12-06T11:03:44.586Z,955.06
2018-12-06T11:04:44.572Z,955.07
2018-12-06T11:05:44.559Z,955.06
2018-12-06T11:06:44.546Z,955.06
2018-12-06T11:07:44.531Z,955.12
2018-12-06T11:08:44.520Z,955.13
2018-12-06T11:09:44.505Z,955.13
2018-12-06T11:10:44.493Z,955.2
2018-12-06T11:11:44.478Z,955.15
2018-12-06T11:12:44.465Z,955.15
2018-12-06T11:13:44.452Z,955.26
2018-12-06T11:14:44.439Z,955.14
2018-12-06T11:15:44.425Z,955.12
2018-12-06T11:16:44.412Z,955.04
2018-12-06T11:17:44.398Z,955.05
2018-12-06T11:18:44.388Z,954.93
2018-12-06T11:19:44.372Z,954.93
2018-12-06T11:20:44.359Z,954.84
2018-12-06T11:21:44.346Z,954.83
2018-12-06T11:22:44.332Z,954.9
2018-12-06T11:23:44.318Z,954.75
2018-12-06T11:24:44.305Z,954.72
2018-12-06T11:25:44.292Z,954.67
2018-12-06T11:26:44.281Z,954.6
2018-12-06T11:27:44.265Z,954.57
2018-12-06T11:28:44.255Z,954.54
2018-12-06T11:29:44.237Z,954.55
2018-12-06T11:30:44.224Z,954.62
2018-12-06T11:31:44.210Z,954.57
2018-12-06T11:32:44.197Z,954.52
2018-12-06T11:33:44.183Z,954.54
2018-12-06T11:34:44.172Z,954.51
2018-12-06T11:35:44.157Z,954.5
2018-12-06T11:36:44.143Z,954.61
2018-12-06T11:37:44.130Z,954.62
2018-12-06T11:38:44.118Z,954.53
2018-12-06T11:39:44.104Z,954.55
2018-12-06T11:40:44.089Z,954.48
2018-12-06T11:41:44.075Z,954.49
2018-12-06T11:42:44.062Z,954.45
2018-12-06T11:43:44.048Z,954.45
2018-12-06T11:44:44.035Z,954.53
2018-12-06T11:45:44.021Z,954.63
2018-12-06T11:46:44.007Z,954.61
2018-12-06T11:47:43.993Z,954.67
2018-12-06T11:48:43.980Z,954.69
2018-12-06T11:49:43.967Z,954.73
2018-12-06T11:50:43.954Z,954.73
2018-12-06T11:51:43.939Z,954.74
2018-12-06T11:52:43.925Z,954.76
2018-12-06T11:53:43.913Z,954.77
2018-12-06T11:54:43.900Z,954.8
2018-12-06T11:55:43.885Z,954.86
2018-12-06T11:56:43.872Z,954.81
2018-12-06T11:57:43.858Z,954.82
2018-12-06T11:58:43.845Z,954.85
2018-12-06T11:59:43.830Z,954.87
2018-12-06T12:00:43.817Z,954.8
2018-12-06T12:01:43.804Z,954.83
2018-12-06T12:02:43.788Z,954.84
2018-12-06T12:03:43.776Z,954.93
2018-12-06T12:04:43.764Z,954.86
2018-12-06T12:05:43.749Z,954.85
2018-12-06T12:06:43.734Z,954.82
2018-12-06T12:07:43.722Z,954.83
2018-12-06T12:08:43.707Z,954.79
2018-12-06T12:09:43.693Z,954.75
2018-12-06T12:10:43.680Z,954.72
2018-12-06T12:11:43.666Z,954.72
2018-12-06T12:12:43.653Z,954.76
2018-12-06T12:13:43.643Z,954.76
2018-12-06T12:14:43.625Z,954.78
2018-12-06T12:15:43.611Z,954.83
2018-12-06T12:16:43.597Z,954.89
2018-12-06T12:17:43.654Z,954.86
2018-12-06T12:18:43.569Z,954.89
2018-12-06T12:19:43.556Z,954.89
2018-12-06T12:20:43.544Z,954.83
2018-12-06T12:21:43.527Z,954.83
2018-12-06T12:22:43.514Z,954.87
2018-12-06T12:23:43.500Z,954.86
2018-12-06T12:24:43.485Z,954.86
2018-12-06T12:25:43.473Z,954.85
2018-12-06T12:26:43.458Z,954.83
2018-12-06T12:27:43.446Z,954.82
2018-12-06T12:28:43.441Z,954.73
2018-12-06T12:29:43.417Z,954.77
2018-12-06T12:30:43.403Z,954.77
2018-12-06T12:31:43.388Z,954.77